createdAt,value
2022-11-15T00:00:32.982Z,1.60
2022-11-15T00:03:14.809Z,1.47
2022-11-15T00:06:04.132Z,1.67
2022-11-15T00:08:44.051Z,1.50
2022-11-15T00:11:21.807Z,1.50
2022-11-15T00:14:00.134Z,1.30
2022-11-15T00:16:38.670Z,1.47
2022-11-15T00:19:16.574Z,1.60
2022-11-15T00:21:54.877Z,1.47
2022-11-15T00:24:35.392Z,1.80
2022-11-15T00:27:12.866Z,1.70
2022-11-15T00:29:51.882Z,1.60
2022-11-15T00:32:32.826Z,1.57
2022-11-15T00:35:11.698Z,1.90
2022-11-15T00:37:49.300Z,1.80
2022-11-15T00:40:46.897Z,1.87
2022-11-15T00:43:26.226Z,1.70
2022-11-15T00:46:05.009Z,1.77
2022-11-15T00:48:44.568Z,1.50
2022-11-15T00:51:22.910Z,1.60
2022-11-15T00:54:01.902Z,1.50
2022-11-15T00:56:42.802Z,1.93
2022-11-15T00:59:20.856Z,1.63
2022-11-15T01:01:58.533Z,2.00
2022-11-15T01:04:36.481Z,1.80
2022-11-15T01:07:15.414Z,2.10
2022-11-15T01:09:53.195Z,1.60
2022-11-15T01:12:32.009Z,1.60
2022-11-15T01:15:10.099Z,1.50
2022-11-15T01:17:49.257Z,1.93
2022-11-15T01:20:27.614Z,1.60
2022-11-15T01:23:09.849Z,1.63
2022-11-15T01:25:48.369Z,1.90
2022-11-15T01:28:30.961Z,1.63
2022-11-15T01:31:13.289Z,1.60
2022-11-15T01:33:51.376Z,1.60
2022-11-15T01:36:28.564Z,1.67
2022-11-15T01:39:06.580Z,2.27
2022-11-15T01:41:44.633Z,1.60
2022-11-15T01:44:32.997Z,1.60
2022-11-15T01:47:14.163Z,1.80
2022-11-15T01:49:57.143Z,1.80
2022-11-15T01:52:36.508Z,1.90
2022-11-15T01:55:17.985Z,2.13
2022-11-15T01:58:06.414Z,1.93
2022-11-15T02:00:44.625Z,1.93
2022-11-15T02:03:27.353Z,1.97
2022-11-15T02:06:05.977Z,1.83
2022-11-15T02:08:44.111Z,2.27
2022-11-15T02:11:31.805Z,1.87
2022-11-15T02:14:11.262Z,2.40
2022-11-15T02:16:53.061Z,2.23
2022-11-15T02:19:42.730Z,2.17
2022-11-15T02:22:28.754Z,2.03
2022-11-15T02:25:15.585Z,1.87
2022-11-15T02:28:02.261Z,2.00
2022-11-15T02:30:43.883Z,1.73
2022-11-15T02:33:30.477Z,2.00
2022-11-15T02:36:10.274Z,2.27
2022-11-15T02:38:50.532Z,2.53
2022-11-15T02:41:32.875Z,2.37
2022-11-15T02:44:14.837Z,1.80
2022-11-15T02:47:06.838Z,2.40
2022-11-15T02:49:47.078Z,2.30
2022-11-15T02:52:27.143Z,1.93
2022-11-15T02:55:06.374Z,2.27
2022-11-15T02:57:46.343Z,2.37
2022-11-15T03:00:23.931Z,2.10
2022-11-15T03:03:12.759Z,2.20
2022-11-15T03:05:54.440Z,1.70
2022-11-15T03:08:33.829Z,2.40
2022-11-15T03:11:14.327Z,2.17
2022-11-15T03:13:54.866Z,1.90
2022-11-15T03:16:38.788Z,2.23
2022-11-15T03:19:19.769Z,2.10
2022-11-15T03:21:57.967Z,2.17
2022-11-15T03:24:38.587Z,1.90
2022-11-15T03:27:17.780Z,2.20
2022-11-15T03:29:58.698Z,2.00
2022-11-15T03:32:38.213Z,1.93
2022-11-15T03:35:18.805Z,2.20
2022-11-15T03:37:57.242Z,2.20
2022-11-15T03:40:39.285Z,2.20
2022-11-15T03:43:22.094Z,2.37
2022-11-15T03:46:03.892Z,2.60
2022-11-15T03:48:43.285Z,2.33
2022-11-15T03:51:23.579Z,2.10
2022-11-15T03:54:04.258Z,1.57
2022-11-15T03:56:42.927Z,1.70
2022-11-15T03:59:20.552Z,2.07
2022-11-15T04:02:00.105Z,1.90
2022-11-15T04:04:38.002Z,2.10
2022-11-15T04:07:17.157Z,2.10
2022-11-15T04:10:05.371Z,2.07
2022-11-15T04:12:47.263Z,2.10
2022-11-15T04:15:26.953Z,2.23
2022-11-15T04:18:05.950Z,2.00
2022-11-15T04:20:56.207Z,2.47
2022-11-15T04:23:47.053Z,1.80
2022-11-15T04:26:26.162Z,1.83
2022-11-15T04:29:16.209Z,2.00
2022-11-15T04:31:55.610Z,1.30
2022-11-15T04:34:33.930Z,1.40
2022-11-15T04:37:13.572Z,1.83
2022-11-15T04:39:52.514Z,2.10
2022-11-15T04:42:31.641Z,1.90
2022-11-15T04:45:10.215Z,2.23
2022-11-15T04:47:48.928Z,2.23
2022-11-15T04:50:27.469Z,1.80
2022-11-15T04:53:04.567Z,2.17
2022-11-15T04:55:45.868Z,2.03
2022-11-15T04:58:24.076Z,1.77
2022-11-15T05:01:08.299Z,2.20
2022-11-15T05:03:55.700Z,2.57
2022-11-15T05:06:32.968Z,1.90
2022-11-15T05:09:13.928Z,2.50
2022-11-15T05:11:53.672Z,2.50
2022-11-15T05:14:33.622Z,2.60
2022-11-15T05:17:10.539Z,2.40
2022-11-15T05:19:49.413Z,2.10
2022-11-15T05:22:29.376Z,2.27
2022-11-15T05:25:08.726Z,1.90
2022-11-15T05:27:48.245Z,2.20
2022-11-15T05:30:26.766Z,2.10
2022-11-15T05:33:05.764Z,2.13
2022-11-15T05:35:47.976Z,2.67
2022-11-15T05:38:27.822Z,2.87
2022-11-15T05:41:08.818Z,2.90
2022-11-15T05:43:50.801Z,2.17
2022-11-15T05:46:28.194Z,2.47
2022-11-15T05:49:08.088Z,2.03
2022-11-15T05:51:49.164Z,2.63
2022-11-15T05:54:27.869Z,2.20
2022-11-15T05:57:05.972Z,2.70
2022-11-15T05:59:45.366Z,2.70
2022-11-15T06:02:23.100Z,2.10
2022-11-15T06:05:02.053Z,2.37
2022-11-15T06:07:42.024Z,2.63
2022-11-15T06:10:20.063Z,2.00
2022-11-15T06:12:59.294Z,2.27
2022-11-15T06:15:38.045Z,1.93
2022-11-15T06:18:16.236Z,2.53
2022-11-15T06:20:55.298Z,2.67
2022-11-15T06:23:34.331Z,1.93
2022-11-15T06:26:12.545Z,2.97
2022-11-15T06:28:50.733Z,2.27
2022-11-15T06:31:35.243Z,2.30
2022-11-15T06:34:12.838Z,3.03
2022-11-15T06:36:51.838Z,2.60
2022-11-15T06:39:34.137Z,2.73
2022-11-15T06:42:12.750Z,2.10
2022-11-15T06:44:50.778Z,2.67
2022-11-15T06:47:32.534Z,2.90
2022-11-15T06:50:09.697Z,2.40
2022-11-15T06:52:48.869Z,2.53
2022-11-15T06:55:27.674Z,2.87
2022-11-15T06:58:07.297Z,2.27
2022-11-15T07:00:47.348Z,2.00
2022-11-15T07:03:27.790Z,2.20
2022-11-15T07:06:08.064Z,3.10
2022-11-15T07:08:46.916Z,3.57
2022-11-15T07:11:25.652Z,3.87
2022-11-15T07:14:03.632Z,3.60
2022-11-15T07:16:42.128Z,3.40
2022-11-15T07:19:22.810Z,2.67
2022-11-15T07:22:00.700Z,2.47
2022-11-15T07:24:38.251Z,3.27
2022-11-15T07:27:16.998Z,2.90
2022-11-15T07:29:55.894Z,3.10
2022-11-15T07:32:36.164Z,2.60
2022-11-15T07:35:16.498Z,2.63
2022-11-15T07:37:55.253Z,2.40
2022-11-15T07:40:35.886Z,3.27
2022-11-15T07:43:23.430Z,3.30
2022-11-15T07:46:05.972Z,3.17
2022-11-15T07:48:46.274Z,3.00
2022-11-15T07:51:25.835Z,3.10
2022-11-15T07:54:05.494Z,2.87
2022-11-15T07:56:44.003Z,2.77
2022-11-15T07:59:22.790Z,2.83
2022-11-15T08:02:00.639Z,2.23
2022-11-15T08:04:39.267Z,2.40
2022-11-15T08:07:23.218Z,2.10
2022-11-15T08:10:02.359Z,2.70
2022-11-15T08:12:39.826Z,3.23
2022-11-15T08:15:27.754Z,2.77
2022-11-15T08:18:07.038Z,2.50
2022-11-15T08:20:46.249Z,2.30
2022-11-15T08:23:25.013Z,3.10
2022-11-15T08:26:05.142Z,2.63
2022-11-15T08:28:45.328Z,2.27
2022-11-15T08:31:31.176Z,2.20
2022-11-15T08:34:10.144Z,2.10
2022-11-15T08:36:48.059Z,2.27
2022-11-15T08:39:27.192Z,2.33
2022-11-15T08:42:19.732Z,1.70
2022-11-15T08:44:58.182Z,2.20
2022-11-15T08:47:49.757Z,2.20
2022-11-15T08:50:31.707Z,2.30
2022-11-15T08:53:10.327Z,2.20
2022-11-15T08:55:50.690Z,2.20
2022-11-15T08:58:29.353Z,2.05
2022-11-15T09:01:08.080Z,2.42
2022-11-15T09:03:47.204Z,2.85
2022-11-15T09:06:27.064Z,2.22
2022-11-15T09:09:06.162Z,2.03
2022-11-15T09:11:47.902Z,2.40
2022-11-15T09:14:36.006Z,2.30
2022-11-15T09:17:17.217Z,2.90
2022-11-15T09:19:57.866Z,2.55
2022-11-15T09:22:42.543Z,2.20
2022-11-15T09:25:20.370Z,2.63
2022-11-15T09:27:59.514Z,2.75
2022-11-15T09:30:38.074Z,2.50
2022-11-15T09:33:19.219Z,2.30
2022-11-15T09:35:56.734Z,2.72
2022-11-15T09:38:36.028Z,2.83
2022-11-15T09:41:31.002Z,2.60
2022-11-15T09:44:21.148Z,2.28
2022-11-15T09:47:08.729Z,2.03
2022-11-15T09:49:58.985Z,2.00
2022-11-15T09:52:35.654Z,2.08
2022-11-15T09:55:03.722Z,3.10
2022-11-15T09:57:33.528Z,2.65
2022-11-15T10:00:30.870Z,2.20
2022-11-15T10:03:00.397Z,2.25
2022-11-15T10:05:29.629Z,2.30
2022-11-15T10:07:59.596Z,2.15
2022-11-15T10:10:29.518Z,2.10
2022-11-15T10:12:57.323Z,1.90
2022-11-15T10:15:26.566Z,1.80
2022-11-15T10:18:03.186Z,1.95
2022-11-15T10:20:31.766Z,2.25
2022-11-15T10:23:02.212Z,2.60
2022-11-15T10:25:30.816Z,1.75
2022-11-15T10:27:59.603Z,2.17
2022-11-15T10:30:35.171Z,2.10
2022-11-15T10:33:12.292Z,2.33
2022-11-15T10:35:41.262Z,2.58
2022-11-15T10:38:09.807Z,2.38
2022-11-15T10:40:40.978Z,2.05
2022-11-15T10:43:16.198Z,2.20
2022-11-15T10:45:49.855Z,2.50
2022-11-15T10:48:24.811Z,2.63
2022-11-15T10:50:53.581Z,2.55
2022-11-15T10:53:25.004Z,1.83
2022-11-15T10:55:54.243Z,2.67
2022-11-15T10:58:41.168Z,2.65
2022-11-15T11:01:15.190Z,2.33
2022-11-15T11:03:43.990Z,2.17
2022-11-15T11:06:12.850Z,2.50
2022-11-15T11:08:40.871Z,2.20
2022-11-15T11:11:09.591Z,2.10
2022-11-15T11:13:39.123Z,1.90
2022-11-15T11:16:16.244Z,2.17
2022-11-15T11:18:49.784Z,2.17
2022-11-15T11:29:00.642Z,1.92
2022-11-15T11:31:44.544Z,2.05
2022-11-15T11:34:21.295Z,2.15
2022-11-15T11:36:54.453Z,1.98
2022-11-15T11:39:46.320Z,2.20
2022-11-15T11:42:24.045Z,2.33
2022-11-15T11:47:54.813Z,2.03
2022-11-15T11:50:46.091Z,2.47
2022-11-15T11:53:23.111Z,2.53
2022-11-15T11:56:01.526Z,2.72
2022-11-15T12:02:18.703Z,2.22
2022-11-15T12:04:50.761Z,2.72
2022-11-15T12:07:29.086Z,2.58
2022-11-15T12:10:24.079Z,2.58
2022-11-15T12:13:02.036Z,2.42
2022-11-15T12:16:11.548Z,1.98
2022-11-15T12:18:52.765Z,2.30
2022-11-15T12:25:16.990Z,2.20
2022-11-15T12:28:18.297Z,2.22
2022-11-15T12:31:18.536Z,2.28
2022-11-15T12:34:09.076Z,2.28
2022-11-15T12:52:19.401Z,1.70
2022-11-15T12:58:54.861Z,1.90
2022-11-15T13:01:47.750Z,1.75
2022-11-15T13:04:17.418Z,1.83
2022-11-15T13:10:47.067Z,1.80
2022-11-15T13:14:05.482Z,1.85
2022-11-15T13:28:05.161Z,1.90
2022-11-15T13:30:52.822Z,1.85
2022-11-15T13:33:31.686Z,1.98
2022-11-15T13:36:44.205Z,1.75
2022-11-15T13:39:48.485Z,1.50
2022-11-15T13:46:41.483Z,1.83
2022-11-15T14:19:36.076Z,2.90
2022-11-15T14:22:13.247Z,1.60
2022-11-15T14:24:42.798Z,1.73
2022-11-15T14:27:25.418Z,2.10
2022-11-15T14:29:53.474Z,1.77
2022-11-15T14:32:21.957Z,2.17
2022-11-15T14:34:50.397Z,2.13
2022-11-15T14:37:22.470Z,2.60
2022-11-15T14:39:51.824Z,2.80
2022-11-15T14:42:19.646Z,2.03
2022-11-15T14:44:47.692Z,2.03
2022-11-15T14:47:15.617Z,2.30
2022-11-15T14:49:43.688Z,2.00
2022-11-15T14:52:21.275Z,2.10
2022-11-15T14:54:48.868Z,2.15
2022-11-15T14:57:17.768Z,2.15
2022-11-15T14:59:45.454Z,2.13
2022-11-15T15:02:16.021Z,2.08
2022-11-15T15:04:43.818Z,2.72
2022-11-15T15:07:11.513Z,2.22
2022-11-15T15:09:39.193Z,2.42
2022-11-15T15:12:07.755Z,2.53
2022-11-15T15:14:36.673Z,1.90
2022-11-15T15:17:04.984Z,1.80
2022-11-15T15:19:32.583Z,2.08
2022-11-15T15:22:00.423Z,1.98
2022-11-15T15:24:28.007Z,2.03
2022-11-15T15:26:55.697Z,2.10
2022-11-15T15:29:23.305Z,1.95
2022-11-15T15:31:52.225Z,1.92
2022-11-15T15:34:19.834Z,2.10
2022-11-15T15:36:47.516Z,2.67
2022-11-15T15:39:15.217Z,1.77
2022-11-15T15:41:42.990Z,2.00
2022-11-15T15:44:10.828Z,2.30
2022-11-15T15:46:38.579Z,2.38
2022-11-15T15:49:10.058Z,2.28
2022-11-15T15:51:37.703Z,2.03
2022-11-15T15:54:05.598Z,1.48
2022-11-15T15:56:34.666Z,2.50
2022-11-15T15:59:02.246Z,2.22
2022-11-15T16:01:29.915Z,2.70
2022-11-15T16:03:57.588Z,2.00
2022-11-15T16:06:34.426Z,2.35
2022-11-15T16:09:14.766Z,2.45
2022-11-15T16:11:43.563Z,2.50
2022-11-15T16:14:13.912Z,2.60
2022-11-15T16:16:41.521Z,2.35
2022-11-15T16:19:10.491Z,2.97
2022-11-15T16:21:57.904Z,2.58
2022-11-15T16:24:25.542Z,2.83
2022-11-15T16:26:53.695Z,2.30
2022-11-15T16:29:21.330Z,2.58
2022-11-15T16:31:48.968Z,2.38
2022-11-15T16:34:16.551Z,2.78
2022-11-15T16:36:44.200Z,2.65
2022-11-15T16:39:18.112Z,2.55
2022-11-15T16:41:47.691Z,3.33
2022-11-15T16:44:15.377Z,2.83
2022-11-15T16:46:43.702Z,3.13
2022-11-15T16:49:13.856Z,3.00
2022-11-15T16:51:42.143Z,2.70
2022-11-15T16:54:09.812Z,3.58
2022-11-15T16:56:39.243Z,4.85
2022-11-15T16:59:07.636Z,3.90
2022-11-15T17:01:36.328Z,4.30
2022-11-15T17:04:12.605Z,3.58
2022-11-15T17:06:40.946Z,2.70
2022-11-15T17:09:12.034Z,4.05
2022-11-15T17:11:41.553Z,3.45
2022-11-15T17:14:09.303Z,3.28
2022-11-15T17:16:38.116Z,3.72
2022-11-15T17:19:05.771Z,3.00
2022-11-15T17:21:33.922Z,3.10
2022-11-15T17:24:01.624Z,2.97
2022-11-15T17:26:31.994Z,2.80
2022-11-15T17:29:04.316Z,2.95
2022-11-15T17:34:18.846Z,3.25
2022-11-15T17:36:47.568Z,3.95
2022-11-15T17:39:15.319Z,3.30
2022-11-15T17:41:42.880Z,3.83
2022-11-15T17:44:11.764Z,3.30
2022-11-15T17:46:40.682Z,2.75
2022-11-15T17:49:08.246Z,2.22
2022-11-15T17:51:35.838Z,2.60
2022-11-15T17:54:03.516Z,3.67
2022-11-15T17:56:31.569Z,3.15
2022-11-15T17:59:00.014Z,2.42
2022-11-15T18:01:29.653Z,2.67
2022-11-15T18:04:00.315Z,2.72
2022-11-15T18:06:30.334Z,3.33
2022-11-15T18:08:57.974Z,2.90
2022-11-15T18:11:26.688Z,3.28
2022-11-15T18:13:55.642Z,2.70
2022-11-15T18:16:27.500Z,2.80
2022-11-15T18:18:56.356Z,3.25
2022-11-15T18:21:24.576Z,2.92
2022-11-15T18:23:54.222Z,2.92
2022-11-15T18:26:26.764Z,2.45
2022-11-15T18:28:55.711Z,2.60
2022-11-15T18:31:24.093Z,3.30
2022-11-15T18:33:52.210Z,2.95
2022-11-15T18:36:22.060Z,2.72
2022-11-15T18:38:49.985Z,2.83
2022-11-15T18:41:20.406Z,2.40
2022-11-15T18:43:50.218Z,2.10
2022-11-15T18:46:18.938Z,1.90
2022-11-15T18:48:46.980Z,2.22
2022-11-15T18:51:15.526Z,1.75
2022-11-15T18:53:44.862Z,2.50
2022-11-15T18:56:13.854Z,1.98
2022-11-15T18:58:42.433Z,2.45
2022-11-15T19:01:11.892Z,2.10
2022-11-15T19:03:40.375Z,2.20
2022-11-15T19:06:08.821Z,2.28
2022-11-15T19:08:36.636Z,3.38
2022-11-15T19:11:06.703Z,2.63
2022-11-15T19:13:35.308Z,2.13
2022-11-15T19:16:03.965Z,2.72
2022-11-15T19:18:32.356Z,2.40
2022-11-15T19:21:03.245Z,2.45
2022-11-15T19:23:34.105Z,2.13
2022-11-15T19:26:02.606Z,2.17
2022-11-15T19:28:31.850Z,2.60
2022-11-15T19:31:04.259Z,2.53
2022-11-15T19:33:32.633Z,2.38
2022-11-15T19:36:01.193Z,2.38
2022-11-15T19:38:28.845Z,2.10
2022-11-15T19:40:58.866Z,2.33
2022-11-15T19:43:26.734Z,2.55
2022-11-15T19:46:02.121Z,2.70
2022-11-15T19:48:30.769Z,2.90
2022-11-15T19:51:00.843Z,2.75
2022-11-15T19:53:33.468Z,3.00
2022-11-15T19:56:03.568Z,3.05
2022-11-15T19:58:31.262Z,2.55
2022-11-15T20:01:04.363Z,2.45
2022-11-15T20:03:32.990Z,2.92
2022-11-15T20:06:02.955Z,3.15
2022-11-15T20:08:31.093Z,2.88
2022-11-15T20:10:59.053Z,3.00
2022-11-15T20:13:26.666Z,3.38
2022-11-15T20:15:54.458Z,3.65
2022-11-15T20:18:23.827Z,3.95
2022-11-15T20:20:51.833Z,3.78
2022-11-15T20:23:19.685Z,4.10
2022-11-15T20:25:48.534Z,3.45
2022-11-15T20:28:17.152Z,3.65
2022-11-15T20:30:45.480Z,3.70
2022-11-15T20:33:13.833Z,3.83
2022-11-15T20:35:43.840Z,3.70
2022-11-15T20:38:11.832Z,3.90
2022-11-15T20:40:39.841Z,3.47
2022-11-15T20:43:07.781Z,4.70
2022-11-15T20:45:35.474Z,4.20
2022-11-15T20:48:03.265Z,4.63
2022-11-15T20:50:45.632Z,4.22
2022-11-15T20:53:15.548Z,4.65
2022-11-15T20:55:43.972Z,4.72
2022-11-15T20:58:11.837Z,4.53
2022-11-15T21:00:41.754Z,4.47
2022-11-15T21:03:09.737Z,4.28
2022-11-15T21:05:38.718Z,3.22
2022-11-15T21:08:06.542Z,3.78
2022-11-15T21:10:48.672Z,3.70
2022-11-15T21:13:16.344Z,4.15
2022-11-15T21:15:43.924Z,4.03
2022-11-15T21:18:11.617Z,4.10
2022-11-15T21:20:39.212Z,3.65
2022-11-15T21:23:06.899Z,4.05
2022-11-15T21:25:35.920Z,4.10
2022-11-15T21:28:03.853Z,4.28
2022-11-15T21:30:31.546Z,4.28
2022-11-15T21:32:59.183Z,4.30
2022-11-15T21:35:26.912Z,4.22
2022-11-15T21:37:56.936Z,4.47
2022-11-15T21:40:25.496Z,3.97
2022-11-15T21:42:54.519Z,3.95
2022-11-15T21:45:22.186Z,4.07
2022-11-15T21:47:49.917Z,4.15
2022-11-15T21:50:17.733Z,4.13
2022-11-15T21:52:46.913Z,3.95
2022-11-15T21:55:14.742Z,4.65
2022-11-15T21:57:42.384Z,4.03
2022-11-15T22:00:22.398Z,3.65
2022-11-15T22:02:50.053Z,4.20
2022-11-15T22:05:18.087Z,3.70
2022-11-15T22:07:45.812Z,3.97
2022-11-15T22:10:13.440Z,4.25
2022-11-15T22:12:41.516Z,4.13
2022-11-15T22:15:09.285Z,4.30
2022-11-15T22:17:48.062Z,4.57
2022-11-15T22:20:43.063Z,4.35
2022-11-15T22:23:03.605Z,4.18
2022-11-15T22:25:31.566Z,4.18
2022-11-15T22:27:59.210Z,4.03
2022-11-15T22:30:26.858Z,4.13
2022-11-15T22:32:56.044Z,4.93
2022-11-15T22:35:23.689Z,4.47
2022-11-15T22:37:52.668Z,4.03
2022-11-15T22:40:20.386Z,3.92
2022-11-15T22:42:48.032Z,4.60
2022-11-15T22:45:15.613Z,4.43
2022-11-15T22:47:43.253Z,3.97
2022-11-15T22:50:12.262Z,4.63
2022-11-15T22:52:39.977Z,3.75
2022-11-15T22:55:07.978Z,4.35
2022-11-15T22:57:38.213Z,4.35
2022-11-15T23:00:09.461Z,4.47
2022-11-15T23:02:37.086Z,4.63
2022-11-15T23:05:04.931Z,4.90
2022-11-15T23:07:34.274Z,4.75
2022-11-15T23:10:25.311Z,4.55
2022-11-15T23:13:04.040Z,4.53
2022-11-15T23:15:51.616Z,4.60
2022-11-15T23:18:19.512Z,4.47
2022-11-15T23:20:47.223Z,4.75
2022-11-15T23:23:15.191Z,5.40
2022-11-15T23:25:42.838Z,4.78
2022-11-15T23:28:10.451Z,4.43
2022-11-15T23:30:48.341Z,4.03
2022-11-15T23:33:26.043Z,4.47
2022-11-15T23:35:54.511Z,4.38
2022-11-15T23:38:23.422Z,4.40
2022-11-15T23:40:51.810Z,4.43
2022-11-15T23:43:19.469Z,4.38
2022-11-15T23:45:47.227Z,4.45
2022-11-15T23:48:14.900Z,4.15
2022-11-15T23:50:42.644Z,4.73
2022-11-15T23:53:10.475Z,3.97
2022-11-15T23:55:40.684Z,3.80
2022-11-15T23:58:08.723Z,3.43
